Time;durP1;ratioP1;P1;durP2;ratioP2;P2;SDS_P1;SDS_P2;PMS_P1;PMS_P2;Temp;Humidity;BMP_temperature;BMP_pressure;BME280_temperature;BME280_humidity;BME280_pressure;Samples;Min_cycle;Max_cycle;Signal;HPM_P1;HPM_P2
2023/06/11 00:01:53;;;;;;;8.00;6.13;;;19.20;1.00;;;;;;5035294;28;20194;-79
2023/06/11 00:04:24;;;;;;;6.00;5.40;;;19.20;1.00;;;;;;5050184;28;20200;-78
2023/06/11 00:06:50;;;;;;;6.17;5.33;;;19.20;1.00;;;;;;5035523;28;20161;-79
2023/06/11 00:09:15;;;;;;;6.17;5.57;;;19.10;1.00;;;;;;5034646;28;20176;-79
2023/06/11 00:11:41;;;;;;;6.70;5.93;;;19.10;1.00;;;;;;5034464;28;20225;-79
2023/06/11 00:14:08;;;;;;;6.53;5.93;;;19.00;1.00;;;;;;5050454;28;20214;-79
2023/06/11 00:16:34;;;;;;;6.67;5.60;;;19.00;1.00;;;;;;5034892;28;20192;-79
2023/06/11 00:19:00;;;;;;;5.50;5.00;;;19.00;1.00;;;;;;5034701;28;20173;-79
2023/06/11 00:21:25;;;;;;;7.73;5.57;;;19.00;1.00;;;;;;5033592;28;20176;-79
2023/06/11 00:23:51;;;;;;;7.90;5.83;;;18.90;1.00;;;;;;5034861;28;20192;-79
2023/06/11 00:26:16;;;;;;;5.83;5.20;;;18.90;1.00;;;;;;5034890;28;20188;-79
2023/06/11 00:28:42;;;;;;;7.07;6.27;;;18.90;1.00;;;;;;5035055;28;20187;-79
2023/06/11 00:31:07;;;;;;;7.73;5.20;;;18.90;1.00;;;;;;5034405;28;20185;-79
2023/06/11 00:33:33;;;;;;;6.03;5.47;;;18.90;1.00;;;;;;5034809;28;20208;-79
2023/06/11 00:35:58;;;;;;;12.00;5.87;;;18.90;1.00;;;;;;5049804;28;20214;-79
2023/06/11 00:38:24;;;;;;;7.30;5.60;;;18.90;1.00;;;;;;5049872;28;20182;-79
2023/06/11 00:40:49;;;;;;;7.70;5.60;;;18.80;1.00;;;;;;5034275;28;20549;-79
2023/06/11 00:43:21;;;;;;;6.43;5.77;;;18.80;1.00;;;;;;5035376;28;20287;-78
2023/06/11 00:45:47;;;;;;;6.30;5.50;;;18.80;1.00;;;;;;5035164;28;20184;-79
2023/06/11 00:48:12;;;;;;;6.63;5.50;;;18.70;1.00;;;;;;5049979;28;20234;-79
2023/06/11 00:50:44;;;;;;;7.67;5.80;;;18.70;1.00;;;;;;5034644;28;20282;-79
2023/06/11 00:53:11;;;;;;;9.67;5.43;;;18.60;1.00;;;;;;5050030;28;20259;-79
2023/06/11 00:55:37;;;;;;;6.80;5.30;;;18.70;1.00;;;;;;5034619;28;20263;-80
2023/06/11 00:58:03;;;;;;;9.03;5.57;;;18.70;1.00;;;;;;5034585;28;20219;-79
2023/06/11 01:00:28;;;;;;;6.93;5.97;;;18.60;1.00;;;;;;5034496;28;20218;-78
2023/06/11 01:03:05;;;;;;;8.53;5.90;;;18.60;1.00;;;;;;5034415;28;20192;-79
2023/06/11 01:05:36;;;;;;;7.90;5.87;;;18.60;1.00;;;;;;5035021;28;20531;-79
2023/06/11 01:08:04;;;;;;;6.70;5.70;;;18.50;1.00;;;;;;5034906;28;20164;-79
2023/06/11 01:10:29;;;;;;;6.33;5.73;;;18.50;1.00;;;;;;5034855;28;20179;-79
2023/06/11 01:12:55;;;;;;;6.63;5.30;;;18.50;1.00;;;;;;5035106;28;20204;-79
2023/06/11 01:15:21;;;;;;;6.50;5.77;;;18.50;1.00;;;;;;5050537;28;20203;-80
2023/06/11 01:17:56;;;;;;;7.03;6.03;;;18.50;1.00;;;;;;5034360;28;20259;-79
2023/06/11 01:20:35;;;;;;;6.73;6.13;;;18.40;1.00;;;;;;5035758;28;20164;-79
2023/06/11 01:23:17;;;;;;;6.47;5.83;;;18.40;1.00;;;;;;5053411;28;20224;-79
2023/06/11 01:26:13;;;;;;;6.30;5.70;;;18.30;1.00;;;;;;5043948;28;20213;-78
2023/06/11 01:28:41;;;;;;;6.37;5.77;;;18.30;1.00;;;;;;5052265;28;20538;-77
2023/06/11 01:31:13;;;;;;;8.13;5.60;;;18.30;1.00;;;;;;5067150;28;20637;-78
2023/06/11 01:33:39;;;;;;;8.53;6.30;;;18.30;1.00;;;;;;5065966;28;20200;-79
2023/06/11 01:36:05;;;;;;;7.60;5.80;;;18.30;1.00;;;;;;5064370;28;20280;-79
2023/06/11 01:38:34;;;;;;;7.20;6.27;;;18.20;1.00;;;;;;5050304;28;20255;-78
2023/06/11 01:41:01;;;;;;;6.90;5.90;;;18.30;1.00;;;;;;5046519;28;20172;-79
2023/06/11 01:43:30;;;;;;;7.53;5.83;;;18.20;1.00;;;;;;5037736;28;20599;-79
2023/06/11 01:45:56;;;;;;;6.60;6.00;;;18.20;1.00;;;;;;5054838;28;20263;-78
2023/06/11 01:48:21;;;;;;;6.70;6.00;;;18.10;1.00;;;;;;5038369;28;20250;-79
2023/06/11 01:50:47;;;;;;;7.83;6.00;;;18.10;1.00;;;;;;5037442;28;20278;-79
2023/06/11 01:53:12;;;;;;;7.27;5.97;;;18.10;1.00;;;;;;5039045;28;20669;-79
2023/06/11 01:55:39;;;;;;;7.30;5.67;;;18.10;1.00;;;;;;5038407;28;20265;-79
2023/06/11 01:58:05;;;;;;;7.17;6.30;;;18.00;1.00;;;;;;5038861;28;20160;-78
2023/06/11 02:00:31;;;;;;;8.40;5.47;;;17.90;1.00;;;;;;5038850;28;20180;-79
2023/06/11 02:02:56;;;;;;;8.97;5.87;;;17.90;1.00;;;;;;5038297;28;20212;-79
2023/06/11 02:05:22;;;;;;;6.20;5.60;;;17.90;1.00;;;;;;5053605;28;20173;-79
2023/06/11 02:07:47;;;;;;;6.90;6.13;;;17.90;1.00;;;;;;5053838;28;20237;-80
2023/06/11 02:10:13;;;;;;;10.97;6.60;;;17.80;1.00;;;;;;5037119;28;20172;-78
2023/06/11 02:12:38;;;;;;;6.73;5.93;;;17.80;1.00;;;;;;5037651;28;20227;-79
2023/06/11 02:15:06;;;;;;;7.03;6.30;;;17.80;1.00;;;;;;5052927;28;20677;-79
2023/06/11 02:17:32;;;;;;;6.90;6.20;;;17.70;1.00;;;;;;5038284;28;20214;-79
2023/06/11 02:19:57;;;;;;;6.60;5.90;;;17.70;1.00;;;;;;5038028;28;20262;-79
2023/06/11 02:22:23;;;;;;;7.80;6.57;;;17.70;1.00;;;;;;5037677;28;20195;-79
2023/06/11 02:24:49;;;;;;;7.30;6.60;;;17.60;1.00;;;;;;5037287;28;20180;-79
2023/06/11 02:27:14;;;;;;;6.97;6.27;;;17.60;1.00;;;;;;5052449;28;20215;-79
2023/06/11 02:29:40;;;;;;;8.90;6.40;;;17.70;1.00;;;;;;5037679;28;20181;-80
2023/06/11 02:32:06;;;;;;;7.37;6.17;;;17.60;1.00;;;;;;5052640;28;20188;-79
2023/06/11 02:34:32;;;;;;;7.83;6.00;;;17.60;1.00;;;;;;5052386;28;20246;-79
2023/06/11 02:36:57;;;;;;;7.77;6.63;;;17.60;1.00;;;;;;5037143;28;20176;-79
2023/06/11 02:39:23;;;;;;;7.10;6.40;;;17.50;1.00;;;;;;5037587;28;20247;-78
2023/06/11 02:41:48;;;;;;;6.87;6.13;;;17.50;1.00;;;;;;5036155;28;20202;-79
2023/06/11 02:44:14;;;;;;;7.27;6.57;;;17.60;1.00;;;;;;5037220;28;20302;-79
2023/06/11 02:46:39;;;;;;;6.70;6.00;;;17.40;1.00;;;;;;5036939;28;20172;-79
2023/06/11 02:49:05;;;;;;;9.30;6.13;;;17.40;1.00;;;;;;5036809;28;20302;-79
2023/06/11 02:51:31;;;;;;;8.60;6.07;;;17.40;1.00;;;;;;5037006;28;20237;-79
2023/06/11 02:53:56;;;;;;;8.07;5.60;;;17.40;1.00;;;;;;5051008;28;20755;-79
2023/06/11 02:56:22;;;;;;;7.20;6.50;;;17.40;1.00;;;;;;5052094;28;20196;-77
2023/06/11 02:58:48;;;;;;;7.17;6.10;;;17.40;1.00;;;;;;5037299;28;20642;-80
2023/06/11 03:01:14;;;;;;;7.83;6.10;;;17.30;1.00;;;;;;5036669;28;20637;-79
2023/06/11 03:03:40;;;;;;;6.77;6.13;;;17.20;1.00;;;;;;5035634;28;20200;-79
2023/06/11 03:06:05;;;;;;;7.73;6.90;;;17.20;1.00;;;;;;5037099;28;20310;-79
2023/06/11 03:08:31;;;;;;;7.70;6.10;;;17.20;1.00;;;;;;5051850;28;20333;-79
2023/06/11 03:10:56;;;;;;;9.57;6.20;;;17.20;1.00;;;;;;5051321;28;20207;-79
2023/06/11 03:13:22;;;;;;;6.90;6.20;;;17.10;1.00;;;;;;5036494;28;20211;-80
2023/06/11 03:15:47;;;;;;;7.93;6.50;;;17.10;1.00;;;;;;5036715;28;20218;-79
2023/06/11 03:18:13;;;;;;;6.43;5.83;;;17.10;1.00;;;;;;5036260;28;20173;-80
2023/06/11 03:20:38;;;;;;;8.33;6.30;;;17.10;1.00;;;;;;5036826;28;20176;-79
2023/06/11 03:23:06;;;;;;;6.37;5.77;;;17.10;1.00;;;;;;5036318;28;20291;-80
2023/06/11 03:25:31;;;;;;;6.47;5.83;;;17.10;1.00;;;;;;5035057;28;20212;-79
2023/06/11 03:27:57;;;;;;;6.80;6.13;;;17.10;1.00;;;;;;5036600;28;20183;-79
2023/06/11 03:30:22;;;;;;;8.10;6.77;;;17.20;1.00;;;;;;5036131;28;20176;-78
2023/06/11 03:32:48;;;;;;;6.67;5.73;;;17.10;1.00;;;;;;5036489;28;20327;-78
2023/06/11 03:35:14;;;;;;;9.13;6.60;;;17.00;1.00;;;;;;5036250;28;20216;-79
2023/06/11 03:37:40;;;;;;;7.33;5.70;;;17.00;1.00;;;;;;5052550;28;20187;-77
2023/06/11 03:40:06;;;;;;;7.17;6.47;;;17.00;1.00;;;;;;5044327;28;20255;-79
2023/06/11 03:42:32;;;;;;;8.63;6.30;;;17.00;1.00;;;;;;5060514;28;20239;-78
2023/06/11 03:44:57;;;;;;;8.87;7.00;;;16.90;1.00;;;;;;5060385;28;20188;-78
2023/06/11 03:47:23;;;;;;;8.83;6.70;;;16.90;1.00;;;;;;5043286;28;20176;-78
2023/06/11 03:49:50;;;;;;;12.00;6.63;;;16.90;1.00;;;;;;5043027;28;20258;-79
2023/06/11 03:52:16;;;;;;;7.20;6.50;;;16.90;1.00;;;;;;5045628;28;20175;-79
2023/06/11 03:54:42;;;;;;;7.43;6.13;;;16.90;1.00;;;;;;5046583;28;20723;-78
2023/06/11 03:57:07;;;;;;;7.20;6.27;;;16.90;1.00;;;;;;5060920;28;20177;-78
2023/06/11 03:59:33;;;;;;;10.30;6.30;;;16.90;1.00;;;;;;5060585;28;20619;-78
2023/06/11 04:02:00;;;;;;;10.70;6.30;;;16.90;1.00;;;;;;5045462;28;20183;-78
2023/06/11 04:04:25;;;;;;;6.30;5.80;;;16.90;1.00;;;;;;5044748;28;20176;-77
2023/06/11 04:06:51;;;;;;;6.77;6.17;;;16.90;1.00;;;;;;5044763;28;20190;-78
2023/06/11 04:09:16;;;;;;;7.40;6.70;;;16.90;1.00;;;;;;5045719;28;20233;-80
2023/06/11 04:11:42;;;;;;;7.57;6.70;;;16.90;1.00;;;;;;5060913;28;20613;-79
2023/06/11 04:14:07;;;;;;;6.90;6.20;;;16.90;1.00;;;;;;5045992;28;20709;-78
2023/06/11 04:16:33;;;;;;;7.17;6.47;;;16.90;1.00;;;;;;5044946;28;20204;-78
2023/06/11 04:18:58;;;;;;;6.97;6.30;;;16.90;1.00;;;;;;5061248;28;20183;-79
2023/06/11 04:21:24;;;;;;;9.20;6.50;;;16.90;1.00;;;;;;5060278;28;20653;-77
2023/06/11 04:23:51;;;;;;;11.53;6.00;;;16.90;1.00;;;;;;5059846;28;20196;-78
2023/06/11 04:26:19;;;;;;;7.50;6.07;;;16.90;1.00;;;;;;5059529;28;20172;-78
2023/06/11 04:28:45;;;;;;;6.73;6.10;;;16.90;6.00;;;;;;5053606;28;20271;-79
2023/06/11 04:31:14;;;;;;;8.43;6.80;;;16.90;14.30;;;;;;5050613;28;20176;-79
2023/06/11 04:33:40;;;;;;;10.00;7.03;;;16.90;13.20;;;;;;5035959;28;20219;-80
2023/06/11 04:36:07;;;;;;;7.63;6.80;;;16.90;20.30;;;;;;5036217;28;20713;-79
2023/06/11 04:38:36;;;;;;;7.97;6.23;;;16.90;22.30;;;;;;5036034;28;20545;-79
2023/06/11 04:41:05;;;;;;;9.17;6.77;;;16.90;25.70;;;;;;5051118;28;20270;-80
2023/06/11 04:43:33;;;;;;;6.50;5.90;;;16.90;26.90;;;;;;5035814;28;20195;-79
2023/06/11 04:46:03;;;;;;;7.20;6.43;;;16.90;29.30;;;;;;5051294;28;20191;-79
2023/06/11 04:48:31;;;;;;;7.33;6.63;;;17.00;34.20;;;;;;5052056;28;20253;-78
2023/06/11 04:50:59;;;;;;;7.43;6.73;;;17.00;31.40;;;;;;5051368;28;20192;-79
2023/06/11 04:53:27;;;;;;;7.10;6.40;;;17.00;42.60;;;;;;5052708;28;20204;-80
2023/06/11 04:55:55;;;;;;;7.23;6.53;;;17.00;50.70;;;;;;5040630;28;20208;-77
2023/06/11 04:58:24;;;;;;;10.20;6.67;;;17.00;53.70;;;;;;5050968;28;20211;-77
2023/06/11 05:00:51;;;;;;;7.40;6.47;;;17.00;65.00;;;;;;5050548;28;20226;-78
2023/06/11 05:03:18;;;;;;;6.93;6.23;;;17.00;64.40;;;;;;5034276;28;20200;-79
2023/06/11 05:05:51;;;;;;;9.13;6.13;;;17.10;74.20;;;;;;5034523;28;20255;-79
2023/06/11 05:08:21;;;;;;;7.53;6.67;;;17.10;88.00;;;;;;5034387;28;20162;-79
2023/06/11 05:10:47;;;;;;;8.03;7.10;;;17.20;92.40;;;;;;5050306;28;20259;-80
2023/06/11 05:13:13;;;;;;;7.37;6.67;;;17.20;99.90;;;;;;5034253;28;20204;-79
2023/06/11 05:15:39;;;;;;;7.50;6.63;;;17.20;96.70;;;;;;5034609;28;20204;-79
2023/06/11 05:18:05;;;;;;;7.50;6.80;;;17.20;94.90;;;;;;5051627;28;20180;-80
2023/06/11 05:20:31;;;;;;;7.10;6.40;;;17.30;97.20;;;;;;5038597;28;20481;-77
2023/06/11 05:23:02;;;;;;;9.70;7.10;;;17.40;99.90;;;;;;5036739;28;20200;-79
2023/06/11 05:25:28;;;;;;;8.03;7.23;;;17.40;99.90;;;;;;5039418;28;20544;-79
2023/06/11 05:27:57;;;;;;;7.17;6.57;;;17.50;99.90;;;;;;5039057;28;20172;-79
2023/06/11 05:30:25;;;;;;;7.10;6.50;;;17.50;99.90;;;;;;5038941;28;20183;-80
2023/06/11 05:32:54;;;;;;;8.60;6.33;;;17.60;99.90;;;;;;5038839;28;20219;-79
2023/06/11 05:35:20;;;;;;;6.97;6.27;;;17.70;99.90;;;;;;5039641;28;20574;-79
2023/06/11 05:37:46;;;;;;;7.50;6.80;;;17.70;99.90;;;;;;5038586;28;20184;-79
2023/06/11 05:40:12;;;;;;;8.17;6.13;;;17.80;99.90;;;;;;5038756;28;20175;-79
2023/06/11 05:42:38;;;;;;;6.83;6.20;;;17.80;99.90;;;;;;5038452;28;20263;-80
2023/06/11 05:45:05;;;;;;;6.60;6.00;;;18.00;99.90;;;;;;5037006;28;20199;-79
2023/06/11 05:47:32;;;;;;;6.67;5.80;;;18.10;98.80;;;;;;5038846;28;20169;-80
2023/06/11 05:49:58;;;;;;;7.10;5.73;;;18.20;91.30;;;;;;5038115;28;20661;-79
2023/06/11 05:52:24;;;;;;;7.43;5.83;;;18.30;83.30;;;;;;5053598;28;20200;-80
2023/06/11 05:54:50;;;;;;;7.40;5.47;;;18.50;69.60;;;;;;5053610;28;20203;-78
2023/06/11 05:57:20;;;;;;;5.90;5.40;;;18.50;27.90;;;;;;5038455;28;20172;-79
2023/06/11 05:59:45;;;;;;;5.90;5.30;;;18.70;6.20;;;;;;5037809;28;20179;-78
2023/06/11 06:02:11;;;;;;;6.83;5.60;;;18.80;1.00;;;;;;5036836;28;20171;-79
2023/06/11 06:04:36;;;;;;;6.03;5.40;;;18.90;1.00;;;;;;5037472;28;20237;-78
2023/06/11 06:07:02;;;;;;;5.57;5.03;;;19.00;1.00;;;;;;5037087;28;20181;-78
2023/06/11 06:09:28;;;;;;;5.67;5.00;;;19.20;1.00;;;;;;5037230;28;20168;-78
2023/06/11 06:11:53;;;;;;;7.83;5.43;;;19.30;1.00;;;;;;5044156;28;20168;-80
2023/06/11 06:14:19;;;;;;;7.63;4.87;;;19.40;1.00;;;;;;5045225;28;20573;-81
2023/06/11 06:16:44;;;;;;;6.37;4.93;;;19.50;1.00;;;;;;5042319;28;20204;-80
2023/06/11 06:19:10;;;;;;;6.93;5.00;;;19.60;1.00;;;;;;5044146;28;20645;-80
2023/06/11 06:21:35;;;;;;;5.00;4.50;;;19.80;1.00;;;;;;5058511;28;20179;-81
2023/06/11 06:24:01;;;;;;;7.10;4.67;;;19.80;1.00;;;;;;5059060;28;20199;-81
2023/06/11 06:26:28;;;;;;;5.43;4.93;;;19.80;1.00;;;;;;5044708;28;20172;-80
2023/06/11 06:28:55;;;;;;;5.70;4.57;;;20.00;1.00;;;;;;5043126;28;20164;-78
2023/06/11 06:31:22;;;;;;;6.50;4.70;;;20.20;1.00;;;;;;5073888;28;20593;-80
2023/06/11 06:33:49;;;;;;;6.67;4.90;;;20.20;1.00;;;;;;5061466;28;20222;-80
2023/06/11 06:36:14;;;;;;;6.80;4.80;;;20.30;1.00;;;;;;5064782;28;20187;-80
2023/06/11 06:38:40;;;;;;;6.00;5.27;;;20.40;1.00;;;;;;5062700;28;20176;-80
2023/06/11 06:41:06;;;;;;;6.57;4.67;;;20.50;1.00;;;;;;5063144;28;20176;-80
2023/06/11 06:43:33;;;;;;;5.43;4.50;;;20.60;1.00;;;;;;5064145;28;20204;-79
2023/06/11 06:45:58;;;;;;;5.57;4.57;;;20.70;1.00;;;;;;5064935;28;20571;-80
2023/06/11 06:48:25;;;;;;;5.67;5.07;;;20.80;1.00;;;;;;5063648;28;20176;-80
2023/06/11 06:50:50;;;;;;;5.17;4.67;;;20.90;1.00;;;;;;5062959;28;20251;-80
2023/06/11 06:53:16;;;;;;;4.73;4.27;;;21.00;1.00;;;;;;5065068;28;20246;-80
2023/06/11 06:55:43;;;;;;;5.63;4.87;;;21.00;99.90;;;;;;5064119;28;20250;-80
2023/06/11 06:58:08;;;;;;;4.80;4.20;;;21.10;99.90;;;;;;5062894;28;20242;-78
2023/06/11 07:00:34;;;;;;;5.47;3.93;;;21.10;99.90;;;;;;5063873;28;20620;-80
2023/06/11 07:02:59;;;;;;;4.80;4.23;;;21.40;99.90;;;;;;5063708;28;20195;-81
2023/06/11 07:05:25;;;;;;;8.60;4.70;;;21.60;99.90;;;;;;5059076;28;20683;-78
2023/06/11 07:07:50;;;;;;;4.97;3.87;;;21.60;99.90;;;;;;5054774;28;20173;-78
2023/06/11 07:10:17;;;;;;;6.70;3.80;;;21.70;99.90;;;;;;5053685;28;20657;-76
2023/06/11 07:12:42;;;;;;;5.17;4.37;;;21.80;99.90;;;;;;5055049;28;20224;-78
2023/06/11 07:15:08;;;;;;;5.40;4.77;;;21.90;99.90;;;;;;5055073;28;20754;-78
2023/06/11 07:17:34;;;;;;;8.77;4.23;;;22.00;99.90;;;;;;5060253;28;20194;-80
2023/06/11 07:20:00;;;;;;;7.47;4.20;;;22.00;99.90;;;;;;5057014;28;20167;-80
2023/06/11 07:22:25;;;;;;;4.90;3.80;;;22.00;99.90;;;;;;5055566;28;20198;-80
2023/06/11 07:24:51;;;;;;;5.73;4.33;;;22.10;99.90;;;;;;5056128;28;20668;-81
2023/06/11 07:27:16;;;;;;;4.10;3.70;;;22.20;99.90;;;;;;5057996;28;20176;-79
2023/06/11 07:29:42;;;;;;;4.00;3.60;;;22.30;99.90;;;;;;5056493;28;20172;-83
2023/06/11 07:32:08;;;;;;;5.13;4.10;;;22.40;99.90;;;;;;5062390;28;20599;-80
2023/06/11 07:34:33;;;;;;;4.40;3.87;;;22.50;99.90;;;;;;5067692;28;20172;-82
2023/06/11 07:36:59;;;;;;;5.50;4.30;;;22.50;99.90;;;;;;5059120;28;20206;-80
2023/06/11 07:39:25;;;;;;;5.27;4.50;;;22.60;99.90;;;;;;5057104;28;20168;-79
2023/06/11 07:41:51;;;;;;;4.20;3.60;;;22.80;99.90;;;;;;5056197;28;20174;-80
2023/06/11 07:44:16;;;;;;;4.57;3.80;;;22.70;99.90;;;;;;5053602;28;20274;-77
2023/06/11 07:46:44;;;;;;;5.23;4.10;;;22.80;99.90;;;;;;5053398;28;20173;-77
2023/06/11 07:49:10;;;;;;;4.57;3.83;;;22.90;99.90;;;;;;5052139;28;20210;-77
2023/06/11 07:51:36;;;;;;;7.47;3.73;;;22.90;99.90;;;;;;5052178;28;20641;-77
2023/06/11 07:54:02;;;;;;;4.17;3.77;;;23.00;99.90;;;;;;5053467;28;20614;-77
2023/06/11 07:56:28;;;;;;;5.60;3.87;;;23.10;99.90;;;;;;5053622;28;20207;-76
2023/06/11 07:58:54;;;;;;;5.00;3.60;;;23.10;99.90;;;;;;5053535;28;20172;-77
2023/06/11 08:01:20;;;;;;;4.33;3.90;;;23.20;99.90;;;;;;5052216;28;20217;-77
2023/06/11 08:03:45;;;;;;;4.67;4.00;;;23.30;87.90;;;;;;5053244;28;20187;-77
2023/06/11 08:06:11;;;;;;;4.70;3.70;;;23.40;36.70;;;;;;5053123;28;20172;-77
2023/06/11 08:08:37;;;;;;;3.97;3.57;;;23.40;39.00;;;;;;5053001;28;20178;-77
2023/06/11 08:11:02;;;;;;;4.97;3.57;;;23.50;96.70;;;;;;5053401;28;20176;-76
2023/06/11 08:13:27;;;;;;;5.57;3.77;;;23.50;64.00;;;;;;5053162;28;20209;-76
2023/06/11 08:15:54;;;;;;;4.33;3.93;;;23.60;44.40;;;;;;5052897;28;20248;-77
2023/06/11 08:18:19;;;;;;;4.20;3.47;;;23.70;43.00;;;;;;5052934;28;20197;-77
2023/06/11 08:20:45;;;;;;;4.53;3.97;;;23.80;52.30;;;;;;5053204;28;20245;-77
2023/06/11 08:23:12;;;;;;;6.03;3.57;;;23.90;37.60;;;;;;5053124;28;20285;-78
2023/06/11 08:25:39;;;;;;;4.30;3.83;;;24.00;10.80;;;;;;5052330;28;20175;-78
2023/06/11 08:28:05;;;;;;;5.10;3.60;;;24.10;1.00;;;;;;5058392;28;20168;-77
2023/06/11 08:30:30;;;;;;;4.23;3.67;;;24.20;1.00;;;;;;5058676;28;20309;-76
2023/06/11 08:32:56;;;;;;;4.00;3.60;;;24.30;1.00;;;;;;5058064;28;20676;-77
2023/06/11 08:35:22;;;;;;;4.27;3.70;;;24.40;1.00;;;;;;5051531;28;20211;-77
2023/06/11 08:37:47;;;;;;;3.60;3.30;;;24.40;1.00;;;;;;5052854;28;20187;-77
2023/06/11 08:40:13;;;;;;;4.63;3.70;;;24.50;1.00;;;;;;5051424;28;20183;-77
2023/06/11 08:42:38;;;;;;;3.72;3.42;;;24.50;1.00;;;;;;5052463;28;20195;-77
2023/06/11 08:45:04;;;;;;;3.90;3.50;;;24.60;1.00;;;;;;5052890;28;20198;-76
2023/06/11 08:47:33;;;;;;;5.43;3.80;;;24.70;1.00;;;;;;5052539;28;20179;-77
2023/06/11 08:50:01;;;;;;;4.50;3.37;;;24.80;1.00;;;;;;5052626;28;20246;-77
2023/06/11 08:52:31;;;;;;;4.43;3.50;;;24.90;1.00;;;;;;5051687;28;20226;-77
2023/06/11 08:54:58;;;;;;;4.63;3.50;;;24.90;1.00;;;;;;5052366;28;20182;-77
2023/06/11 08:57:25;;;;;;;4.13;3.58;;;25.00;1.00;;;;;;5052543;28;20168;-77
2023/06/11 08:59:50;;;;;;;6.17;3.97;;;25.00;1.00;;;;;;5052251;28;20210;-77
2023/06/11 09:02:17;;;;;;;4.30;3.47;;;25.10;1.00;;;;;;5052935;28;20288;-77
2023/06/11 09:04:44;;;;;;;3.83;3.45;;;25.10;1.00;;;;;;5051122;28;20615;-77
2023/06/11 09:07:09;;;;;;;3.77;3.47;;;25.20;1.00;;;;;;5051430;28;20195;-77
2023/06/11 09:09:35;;;;;;;4.72;3.75;;;25.20;1.00;;;;;;5053368;28;20355;-77
2023/06/11 09:12:06;;;;;;;4.13;3.60;;;25.30;1.00;;;;;;5051183;28;20186;-76
2023/06/11 09:14:31;;;;;;;4.53;3.78;;;25.30;1.00;;;;;;5051030;28;20274;-77
2023/06/11 09:16:57;;;;;;;3.50;3.20;;;25.40;1.00;;;;;;5050927;28;20295;-77
2023/06/11 09:19:22;;;;;;;6.82;3.25;;;25.50;1.00;;;;;;5052317;28;20194;-77
2023/06/11 09:21:50;;;;;;;4.68;3.38;;;25.50;1.00;;;;;;5050883;28;20225;-77
2023/06/11 09:24:18;;;;;;;3.40;3.10;;;25.60;1.00;;;;;;5052112;28;20191;-77
2023/06/11 09:26:57;;;;;;;4.15;3.30;;;25.70;1.00;;;;;;5052160;28;20205;-76
2023/06/11 09:29:23;;;;;;;4.00;3.40;;;25.90;1.00;;;;;;5052008;28;20176;-76
2023/06/11 09:32:08;;;;;;;5.82;3.35;;;25.90;1.00;;;;;;5052073;28;20232;-77
2023/06/11 09:34:34;;;;;;;3.83;3.40;;;26.00;99.90;;;;;;5052692;28;20188;-79
2023/06/11 09:37:03;;;;;;;4.63;3.78;;;26.20;99.90;;;;;;5054687;28;20232;-79
2023/06/11 09:39:29;;;;;;;3.45;2.90;;;26.20;99.90;;;;;;5053159;28;20184;-78
2023/06/11 09:41:55;;;;;;;4.85;3.60;;;26.20;99.90;;;;;;5055110;28;20199;-79
2023/06/11 09:44:21;;;;;;;7.22;3.33;;;26.30;99.90;;;;;;5054532;28;20200;-80
2023/06/11 09:46:48;;;;;;;4.97;2.92;;;26.40;99.90;;;;;;5053488;28;20550;-79
2023/06/11 09:49:15;;;;;;;3.38;2.95;;;26.40;99.90;;;;;;5054813;28;20176;-79
2023/06/11 09:51:41;;;;;;;5.10;3.25;;;26.60;99.90;;;;;;5054966;28;20164;-79
2023/06/11 09:54:07;;;;;;;5.07;3.15;;;26.60;99.90;;;;;;5054441;28;20253;-79
2023/06/11 09:56:35;;;;;;;3.22;2.92;;;26.70;99.90;;;;;;5053454;28;20196;-79
2023/06/11 09:59:02;;;;;;;4.20;3.40;;;26.60;99.90;;;;;;5054971;28;20664;-79
2023/06/11 10:01:29;;;;;;;4.03;3.03;;;26.70;99.90;;;;;;5054474;28;20178;-80
2023/06/11 10:03:58;;;;;;;4.75;3.13;;;26.80;73.90;;;;;;5055571;28;20183;-80
2023/06/11 10:06:29;;;;;;;3.15;2.85;;;26.80;99.90;;;;;;5055933;28;20168;-77
2023/06/11 10:08:58;;;;;;;3.60;3.30;;;27.00;99.90;;;;;;5056021;28;20507;-77
2023/06/11 10:11:24;;;;;;;4.97;3.58;;;27.00;99.90;;;;;;5055696;28;20176;-77
2023/06/11 10:13:58;;;;;;;5.60;3.65;;;27.10;1.00;;;;;;5055962;28;20618;-78
2023/06/11 10:16:24;;;;;;;6.53;3.30;;;27.20;1.00;;;;;;5054988;28;20206;-78
2023/06/11 10:18:51;;;;;;;7.45;3.40;;;27.20;1.00;;;;;;5056063;28;20536;-77
2023/06/11 10:21:18;;;;;;;7.38;3.20;;;27.20;1.00;;;;;;5054614;28;20179;-77
2023/06/11 10:23:50;;;;;;;5.35;3.70;;;27.30;1.00;;;;;;5055056;28;20215;-80
2023/06/11 10:26:16;;;;;;;4.65;3.58;;;27.30;99.90;;;;;;5055671;28;20179;-79
2023/06/11 10:28:51;;;;;;;5.97;3.38;;;27.40;99.90;;;;;;5056636;28;20182;-78
2023/06/11 10:31:27;;;;;;;3.60;3.30;;;27.50;11.00;;;;;;5057128;28;20241;-78
2023/06/11 10:34:03;;;;;;;4.45;3.47;;;27.50;99.90;;;;;;5054662;28;20199;-79
2023/06/11 10:36:38;;;;;;;3.80;3.33;;;27.60;99.90;;;;;;5054830;28;20253;-77
2023/06/11 10:39:22;;;;;;;5.00;3.33;;;27.70;1.00;;;;;;5054105;28;20290;-77
2023/06/11 10:42:01;;;;;;;4.28;3.33;;;27.70;1.00;;;;;;5054632;28;20259;-78
2023/06/11 10:44:29;;;;;;;4.60;3.70;;;27.80;99.90;;;;;;5055946;28;20183;-78
2023/06/11 10:46:55;;;;;;;5.13;3.08;;;27.90;99.90;;;;;;5055999;28;20168;-78
2023/06/11 10:49:27;;;;;;;5.53;2.90;;;27.90;1.00;;;;;;5054846;28;20631;-78
2023/06/11 10:51:53;;;;;;;5.10;3.65;;;28.00;1.00;;;;;;5055181;28;20194;-78
2023/06/11 10:54:33;;;;;;;5.90;3.40;;;28.00;1.00;;;;;;5054790;28;20222;-77
2023/06/11 10:57:00;;;;;;;5.82;3.70;;;28.10;99.90;;;;;;5054954;28;20574;-76
2023/06/11 10:59:27;;;;;;;4.10;3.65;;;28.10;1.00;;;;;;5055054;28;20179;-77
2023/06/11 11:01:53;;;;;;;5.72;3.50;;;28.20;99.90;;;;;;5054810;28;20247;-76
2023/06/11 11:04:21;;;;;;;4.20;2.97;;;28.20;1.00;;;;;;5054333;28;20231;-76
2023/06/11 11:06:47;;;;;;;4.55;3.38;;;28.20;99.90;;;;;;5055463;28;20254;-79
2023/06/11 11:09:19;;;;;;;4.18;3.35;;;28.20;99.90;;;;;;5054502;28;20172;-77
2023/06/11 11:11:45;;;;;;;4.47;3.42;;;28.30;99.90;;;;;;5055375;28;20179;-75
2023/06/11 11:14:11;;;;;;;7.75;3.58;;;28.30;99.90;;;;;;5052882;28;20684;-77
2023/06/11 11:16:37;;;;;;;4.85;3.33;;;28.30;99.90;;;;;;5053616;28;20195;-77
2023/06/11 11:19:02;;;;;;;3.83;3.45;;;28.40;99.90;;;;;;5054224;28;20171;-77
2023/06/11 11:21:29;;;;;;;7.97;3.88;;;28.50;99.90;;;;;;5052565;28;20172;-77
2023/06/11 11:23:55;;;;;;;5.00;3.45;;;28.60;99.90;;;;;;5052681;28;20218;-77
2023/06/11 11:26:21;;;;;;;3.38;3.05;;;28.60;1.00;;;;;;5054168;28;20577;-77
2023/06/11 11:28:46;;;;;;;6.68;3.30;;;28.70;99.90;;;;;;5052755;28;20198;-76
2023/06/11 11:31:17;;;;;;;6.32;3.67;;;28.70;99.90;;;;;;5052605;28;20176;-77
2023/06/11 11:33:45;;;;;;;5.60;3.40;;;28.70;99.90;;;;;;5054718;28;20191;-78
2023/06/11 11:36:11;;;;;;;11.18;4.40;;;28.80;1.00;;;;;;5055858;28;20192;-79
2023/06/11 11:38:37;;;;;;;5.32;3.30;;;28.80;1.00;;;;;;5056925;28;20164;-78
2023/06/11 11:41:07;;;;;;;7.28;3.58;;;28.90;1.00;;;;;;5055026;28;20187;-79
2023/06/11 11:43:43;;;;;;;6.22;3.17;;;28.90;1.00;;;;;;5055509;28;20196;-79
2023/06/11 11:46:20;;;;;;;6.85;3.75;;;29.00;1.00;;;;;;5056092;28;20172;-79
2023/06/11 11:48:46;;;;;;;8.05;3.63;;;29.00;1.00;;;;;;5056135;28;20181;-81
2023/06/11 11:51:15;;;;;;;5.57;3.60;;;29.00;1.00;;;;;;5056498;28;20222;-81
2023/06/11 11:53:41;;;;;;;4.03;3.15;;;29.00;1.00;;;;;;5057681;28;20203;-81
2023/06/11 11:56:07;;;;;;;6.88;3.55;;;29.00;99.90;;;;;;5071006;28;20183;-79
2023/06/11 11:58:38;;;;;;;7.43;3.47;;;29.00;1.00;;;;;;5076900;28;20225;-79
2023/06/11 12:01:08;;;;;;;5.55;3.53;;;28.90;1.00;;;;;;5070190;28;20163;-81
2023/06/11 12:03:34;;;;;;;4.25;3.85;;;28.60;1.00;;;;;;5055344;28;20188;-82
2023/06/11 12:06:07;;;;;;;7.50;3.92;;;28.60;99.90;;;;;;5060427;28;20254;-80
2023/06/11 12:08:34;;;;;;;5.70;3.60;;;28.60;99.90;;;;;;5055948;28;20286;-82
2023/06/11 12:11:01;;;;;;;4.13;3.72;;;28.60;99.90;;;;;;5054549;28;20201;-80
2023/06/11 12:13:26;;;;;;;5.47;4.10;;;28.40;1.00;;;;;;5053017;28;20549;-81
2023/06/11 12:15:53;;;;;;;5.20;3.80;;;28.40;99.90;;;;;;5053486;28;20195;-81
2023/06/11 12:18:18;;;;;;;4.82;3.95;;;28.50;99.90;;;;;;5055278;28;20242;-80
2023/06/11 12:20:44;;;;;;;7.65;3.88;;;28.60;99.90;;;;;;5055797;28;20675;-79
2023/06/11 12:23:10;;;;;;;6.20;3.55;;;28.70;1.00;;;;;;5055751;28;20213;-81
2023/06/11 12:25:36;;;;;;;4.90;3.35;;;28.90;99.90;;;;;;5053954;28;20172;-80
2023/06/11 12:28:02;;;;;;;4.10;3.75;;;29.10;99.90;;;;;;5053500;28;20178;-80
2023/06/11 12:30:32;;;;;;;6.63;3.53;;;29.20;99.90;;;;;;5055910;28;20172;-79
2023/06/11 12:32:59;;;;;;;8.18;3.63;;;29.40;1.00;;;;;;5056758;28;20210;-79
2023/06/11 12:35:27;;;;;;;6.32;3.92;;;29.40;1.00;;;;;;5055454;28;20206;-79
2023/06/11 12:37:52;;;;;;;5.07;3.58;;;29.50;99.90;;;;;;5056355;28;20477;-79
2023/06/11 12:40:18;;;;;;;4.28;3.58;;;29.70;1.00;;;;;;5056568;28;20246;-80
2023/06/11 12:42:43;;;;;;;4.93;3.83;;;29.80;1.00;;;;;;5056469;28;20196;-80
2023/06/11 12:45:09;;;;;;;6.57;3.85;;;29.80;1.00;;;;;;5056383;28;20564;-80
2023/06/11 12:47:37;;;;;;;4.40;4.00;;;29.90;1.00;;;;;;5054590;28;20178;-80
2023/06/11 12:50:02;;;;;;;5.68;3.95;;;29.90;99.90;;;;;;5057900;28;20183;-79
2023/06/11 12:52:28;;;;;;;5.78;4.63;;;30.00;99.90;;;;;;5064449;28;20256;-81